sensor_id;sensor_type;location;lat;lon;timestamp;pressure;altitude;pressure_sealevel;temperature;humidity
45763;BME280;37512;52.408;13.356;2024-03-22T00:01:55;101606.81;;;7.11;100.00
45763;BME280;37512;52.408;13.356;2024-03-22T00:05:56;101603.38;;;7.20;100.00
45763;BME280;37512;52.408;13.356;2024-03-22T00:09:57;101597.38;;;6.98;100.00
45763;BME280;37512;52.408;13.356;2024-03-22T00:13:58;101594.25;;;6.92;100.00
45763;BME280;37512;52.408;13.356;2024-03-22T00:17:58;101585.84;;;6.67;100.00
45763;BME280;37512;52.408;13.356;2024-03-22T00:21:59;101590.53;;;6.53;100.00
45763;BME280;37512;52.408;13.356;2024-03-22T00:25:59;101585.28;;;6.93;100.00
45763;BME280;37512;52.408;13.356;2024-03-22T00:30:00;101582.88;;;7.21;100.00
45763;BME280;37512;52.408;13.356;2024-03-22T00:34:01;101570.09;;;7.15;100.00
45763;BME280;37512;52.408;13.356;2024-03-22T00:38:02;101559.13;;;7.08;100.00
45763;BME280;37512;52.408;13.356;2024-03-22T00:42:03;101555.97;;;6.93;100.00
45763;BME280;37512;52.408;13.356;2024-03-22T00:46:04;101549.63;;;6.85;100.00
45763;BME280;37512;52.408;13.356;2024-03-22T00:50:05;101557.50;;;6.86;100.00
45763;BME280;37512;52.408;13.356;2024-03-22T00:54:05;101552.72;;;7.20;100.00
45763;BME280;37512;52.408;13.356;2024-03-22T00:58:06;101550.47;;;7.16;100.00
45763;BME280;37512;52.408;13.356;2024-03-22T01:02:07;101551.94;;;6.99;100.00
45763;BME280;37512;52.408;13.356;2024-03-22T01:06:08;101551.78;;;7.31;100.00
45763;BME280;37512;52.408;13.356;2024-03-22T01:10:10;101534.34;;;7.17;100.00
45763;BME280;37512;52.408;13.356;2024-03-22T01:14:11;101527.69;;;6.72;100.00
45763;BME280;37512;52.408;13.356;2024-03-22T01:18:12;101515.88;;;7.35;100.00
45763;BME280;37512;52.408;13.356;2024-03-22T01:22:16;101507.31;;;7.32;100.00
45763;BME280;37512;52.408;13.356;2024-03-22T01:26:17;101515.53;;;7.19;100.00
45763;BME280;37512;52.408;13.356;2024-03-22T01:30:18;101515.97;;;7.24;100.00
45763;BME280;37512;52.408;13.356;2024-03-22T01:34:18;101508.81;;;7.15;100.00
45763;BME280;37512;52.408;13.356;2024-03-22T01:38:19;101509.56;;;7.36;100.00
45763;BME280;37512;52.408;13.356;2024-03-22T01:42:20;101507.56;;;7.19;100.00
45763;BME280;37512;52.408;13.356;2024-03-22T01:46:20;101506.31;;;6.83;100.00
45763;BME280;37512;52.408;13.356;2024-03-22T01:50:21;101498.31;;;6.83;100.00
45763;BME280;37512;52.408;13.356;2024-03-22T01:54:22;101490.81;;;6.98;100.00
45763;BME280;37512;52.408;13.356;2024-03-22T01:58:22;101484.63;;;6.97;100.00
45763;BME280;37512;52.408;13.356;2024-03-22T02:02:23;101480.28;;;7.06;100.00
45763;BME280;37512;52.408;13.356;2024-03-22T02:06:24;101478.03;;;7.01;100.00
45763;BME280;37512;52.408;13.356;2024-03-22T02:10:24;101477.91;;;7.03;100.00
45763;BME280;37512;52.408;13.356;2024-03-22T02:14:25;101468.97;;;7.13;100.00
45763;BME280;37512;52.408;13.356;2024-03-22T02:18:26;101473.50;;;6.82;100.00
45763;BME280;37512;52.408;13.356;2024-03-22T02:22:27;101465.03;;;7.17;100.00
45763;BME280;37512;52.408;13.356;2024-03-22T02:26:27;101469.09;;;7.12;100.00
45763;BME280;37512;52.408;13.356;2024-03-22T02:30:28;101459.81;;;7.06;100.00
45763;BME280;37512;52.408;13.356;2024-03-22T02:34:28;101448.03;;;7.09;100.00
45763;BME280;37512;52.408;13.356;2024-03-22T02:38:29;101435.84;;;7.06;100.00
45763;BME280;37512;52.408;13.356;2024-03-22T02:42:30;101435.25;;;6.93;100.00
45763;BME280;37512;52.408;13.356;2024-03-22T02:46:30;101431.22;;;7.08;100.00
45763;BME280;37512;52.408;13.356;2024-03-22T02:50:38;101434.75;;;7.18;100.00
45763;BME280;37512;52.408;13.356;2024-03-22T02:54:38;101432.19;;;6.98;100.00
45763;BME280;37512;52.408;13.356;2024-03-22T02:58:39;101421.00;;;7.23;100.00
45763;BME280;37512;52.408;13.356;2024-03-22T03:02:40;101413.41;;;7.18;100.00
45763;BME280;37512;52.408;13.356;2024-03-22T03:06:40;101400.22;;;7.26;100.00
45763;BME280;37512;52.408;13.356;2024-03-22T03:10:41;101391.00;;;7.31;100.00
45763;BME280;37512;52.408;13.356;2024-03-22T03:14:41;101392.53;;;7.33;100.00
45763;BME280;37512;52.408;13.356;2024-03-22T03:18:42;101386.91;;;7.26;100.00
45763;BME280;37512;52.408;13.356;2024-03-22T03:22:43;101379.88;;;7.25;100.00
45763;BME280;37512;52.408;13.356;2024-03-22T03:26:43;101369.66;;;7.31;100.00
45763;BME280;37512;52.408;13.356;2024-03-22T03:30:44;101356.72;;;7.26;100.00
45763;BME280;37512;52.408;13.356;2024-03-22T03:34:45;101351.25;;;7.08;100.00
45763;BME280;37512;52.408;13.356;2024-03-22T03:38:45;101334.59;;;6.97;100.00
45763;BME280;37512;52.408;13.356;2024-03-22T03:42:46;101336.13;;;7.09;100.00
45763;BME280;37512;52.408;13.356;2024-03-22T03:46:46;101326.31;;;7.19;100.00
45763;BME280;37512;52.408;13.356;2024-03-22T03:50:54;101323.22;;;7.33;100.00
45763;BME280;37512;52.408;13.356;2024-03-22T03:54:55;101326.31;;;7.00;100.00
45763;BME280;37512;52.408;13.356;2024-03-22T03:58:55;101316.59;;;7.28;100.00
45763;BME280;37512;52.408;13.356;2024-03-22T04:02:56;101305.28;;;7.16;100.00
45763;BME280;37512;52.408;13.356;2024-03-22T04:06:57;101290.56;;;7.12;100.00
45763;BME280;37512;52.408;13.356;2024-03-22T04:10:57;101290.66;;;7.39;100.00
45763;BME280;37512;52.408;13.356;2024-03-22T04:14:58;101299.38;;;7.32;100.00
45763;BME280;37512;52.408;13.356;2024-03-22T04:18:59;101282.34;;;7.42;100.00
45763;BME280;37512;52.408;13.356;2024-03-22T04:22:59;101270.31;;;7.29;100.00
45763;BME280;37512;52.408;13.356;2024-03-22T04:27:00;101279.81;;;7.50;100.00
45763;BME280;37512;52.408;13.356;2024-03-22T04:31:03;101278.84;;;7.42;100.00
45763;BME280;37512;52.408;13.356;2024-03-22T04:35:04;101271.97;;;7.39;100.00
45763;BME280;37512;52.408;13.356;2024-03-22T04:39:05;101269.91;;;7.33;100.00
45763;BME280;37512;52.408;13.356;2024-03-22T04:43:05;101255.72;;;7.33;100.00
45763;BME280;37512;52.408;13.356;2024-03-22T04:47:06;101252.22;;;7.32;100.00
45763;BME280;37512;52.408;13.356;2024-03-22T04:51:06;101251.63;;;7.38;100.00
45763;BME280;37512;52.408;13.356;2024-03-22T04:55:07;101250.69;;;7.30;100.00
45763;BME280;37512;52.408;13.356;2024-03-22T04:59:08;101250.41;;;7.23;100.00
45763;BME280;37512;52.408;13.356;2024-03-22T05:03:09;101245.72;;;7.44;100.00
45763;BME280;37512;52.408;13.356;2024-03-22T05:07:09;101237.63;;;7.26;100.00
45763;BME280;37512;52.408;13.356;2024-03-22T05:11:10;101248.28;;;7.36;100.00
45763;BME280;37512;52.408;13.356;2024-03-22T05:15:11;101240.13;;;7.38;100.00
45763;BME280;37512;52.408;13.356;2024-03-22T05:19:11;101235.25;;;7.23;100.00
45763;BME280;37512;52.408;13.356;2024-03-22T05:23:12;101228.53;;;7.29;100.00
45763;BME280;37512;52.408;13.356;2024-03-22T05:27:12;101229.63;;;7.26;100.00
45763;BME280;37512;52.408;13.356;2024-03-22T05:31:13;101224.53;;;7.43;100.00
45763;BME280;37512;52.408;13.356;2024-03-22T05:35:14;101214.38;;;7.66;100.00
45763;BME280;37512;52.408;13.356;2024-03-22T05:39:14;101206.53;;;7.17;100.00
45763;BME280;37512;52.408;13.356;2024-03-22T05:43:15;101207.06;;;7.21;100.00
45763;BME280;37512;52.408;13.356;2024-03-22T05:47:16;101207.16;;;7.39;100.00
45763;BME280;37512;52.408;13.356;2024-03-22T05:51:16;101198.00;;;7.51;100.00
45763;BME280;37512;52.408;13.356;2024-03-22T05:55:17;101199.09;;;7.58;100.00
45763;BME280;37512;52.408;13.356;2024-03-22T05:59:18;101187.69;;;7.66;100.00
45763;BME280;37512;52.408;13.356;2024-03-22T06:03:18;101187.88;;;7.54;100.00
45763;BME280;37512;52.408;13.356;2024-03-22T06:07:19;101187.28;;;7.61;100.00
45763;BME280;37512;52.408;13.356;2024-03-22T06:11:20;101174.63;;;7.63;100.00
45763;BME280;37512;52.408;13.356;2024-03-22T06:15:24;101167.34;;;7.65;100.00
45763;BME280;37512;52.408;13.356;2024-03-22T06:19:24;101164.72;;;7.82;100.00
45763;BME280;37512;52.408;13.356;2024-03-22T06:23:25;101169.31;;;7.63;100.00
45763;BME280;37512;52.408;13.356;2024-03-22T06:27:25;101164.22;;;7.69;100.00
45763;BME280;37512;52.408;13.356;2024-03-22T06:31:26;101154.22;;;7.81;100.00
45763;BME280;37512;52.408;13.356;2024-03-22T06:35:28;101162.28;;;7.62;100.00
45763;BME280;37512;52.408;13.356;2024-03-22T06:39:29;101147.34;;;7.96;100.00
45763;BME280;37512;52.408;13.356;2024-03-22T06:43:29;101146.59;;;7.86;100.00
45763;BME280;37512;52.408;13.356;2024-03-22T06:47:30;101139.31;;;8.06;100.00
45763;BME280;37512;52.408;13.356;2024-03-22T06:51:31;101140.34;;;7.95;100.00
45763;BME280;37512;52.408;13.356;2024-03-22T06:55:31;101137.53;;;7.97;100.00
45763;BME280;37512;52.408;13.356;2024-03-22T06:59:32;101126.19;;;8.12;100.00
45763;BME280;37512;52.408;13.356;2024-03-22T07:03:33;101134.75;;;8.16;100.00
45763;BME280;37512;52.408;13.356;2024-03-22T07:07:34;101123.97;;;8.08;100.00
45763;BME280;37512;52.408;13.356;2024-03-22T07:11:35;101121.53;;;8.50;100.00
45763;BME280;37512;52.408;13.356;2024-03-22T07:15:35;101131.47;;;8.58;100.00
45763;BME280;37512;52.408;13.356;2024-03-22T07:19:36;101119.84;;;8.31;100.00
45763;BME280;37512;52.408;13.356;2024-03-22T07:23:37;101116.66;;;8.63;100.00
45763;BME280;37512;52.408;13.356;2024-03-22T07:27:38;101106.44;;;8.59;100.00
45763;BME280;37512;52.408;13.356;2024-03-22T07:31:38;101112.56;;;8.77;100.00
45763;BME280;37512;52.408;13.356;2024-03-22T07:35:39;101111.78;;;8.85;100.00
45763;BME280;37512;52.408;13.356;2024-03-22T07:39:40;101109.44;;;9.07;100.00
45763;BME280;37512;52.408;13.356;2024-03-22T07:43:41;101110.88;;;9.02;100.00
45763;BME280;37512;52.408;13.356;2024-03-22T07:47:41;101115.56;;;9.00;100.00
45763;BME280;37512;52.408;13.356;2024-03-22T07:51:43;101111.19;;;8.91;100.00
45763;BME280;37512;52.408;13.356;2024-03-22T07:55:44;101101.06;;;9.02;100.00
45763;BME280;37512;52.408;13.356;2024-03-22T07:59:45;101100.56;;;8.81;100.00
45763;BME280;37512;52.408;13.356;2024-03-22T08:03:45;101095.78;;;9.19;100.00
45763;BME280;37512;52.408;13.356;2024-03-22T08:07:46;101094.25;;;9.16;100.00
45763;BME280;37512;52.408;13.356;2024-03-22T08:11:46;101084.88;;;9.38;98.67
45763;BME280;37512;52.408;13.356;2024-03-22T08:15:48;101087.16;;;9.33;97.88
45763;BME280;37512;52.408;13.356;2024-03-22T08:19:48;101080.88;;;9.42;98.40
45763;BME280;37512;52.408;13.356;2024-03-22T08:23:50;101080.78;;;9.26;99.66
45763;BME280;37512;52.408;13.356;2024-03-22T08:27:51;101071.88;;;9.17;100.00
45763;BME280;37512;52.408;13.356;2024-03-22T08:31:55;101071.56;;;9.71;97.72
45763;BME280;37512;52.408;13.356;2024-03-22T08:35:56;101069.56;;;9.64;96.10
45763;BME280;37512;52.408;13.356;2024-03-22T08:39:56;101057.09;;;10.06;95.78
45763;BME280;37512;52.408;13.356;2024-03-22T08:43:57;101050.88;;;9.73;95.12
45763;BME280;37512;52.408;13.356;2024-03-22T08:47:58;101040.84;;;9.75;95.02
45763;BME280;37512;52.408;13.356;2024-03-22T08:51:58;101035.94;;;9.70;94.31
45763;BME280;37512;52.408;13.356;2024-03-22T08:55:59;101027.63;;;9.81;94.44
45763;BME280;37512;52.408;13.356;2024-03-22T08:59:59;101020.09;;;10.01;94.29
45763;BME280;37512;52.408;13.356;2024-03-22T09:04:00;101007.06;;;9.98;94.26
45763;BME280;37512;52.408;13.356;2024-03-22T09:08:00;101009.41;;;9.93;94.34
45763;BME280;37512;52.408;13.356;2024-03-22T09:12:04;101002.22;;;10.18;93.62
45763;BME280;37512;52.408;13.356;2024-03-22T09:16:04;101005.91;;;10.33;92.13
45763;BME280;37512;52.408;13.356;2024-03-22T09:20:05;100990.97;;;10.63;90.68
45763;BME280;37512;52.408;13.356;2024-03-22T09:24:08;100990.00;;;10.40;90.95
45763;BME280;37512;52.408;13.356;2024-03-22T09:28:08;100992.44;;;10.74;88.48
45763;BME280;37512;52.408;13.356;2024-03-22T09:32:09;100974.19;;;10.69;87.76
45763;BME280;37512;52.408;13.356;2024-03-22T09:36:10;100984.63;;;11.03;87.32
45763;BME280;37512;52.408;13.356;2024-03-22T09:40:11;100990.03;;;10.87;87.84
45763;BME280;37512;52.408;13.356;2024-03-22T09:44:18;100985.22;;;10.82;88.78
45763;BME280;37512;52.408;13.356;2024-03-22T09:48:20;100988.09;;;10.73;87.35
45763;BME280;37512;52.408;13.356;2024-03-22T09:52:21;100977.78;;;10.93;86.91
45763;BME280;37512;52.408;13.356;2024-03-22T09:56:24;100983.78;;;11.03;85.07
45763;BME280;37512;52.408;13.356;2024-03-22T10:00:25;100973.03;;;11.11;84.21
45763;BME280;37512;52.408;13.356;2024-03-22T10:04:29;100973.44;;;10.92;84.47
45763;BME280;37512;52.408;13.356;2024-03-22T10:08:33;100963.81;;;11.13;84.30
45763;BME280;37512;52.408;13.356;2024-03-22T10:12:34;100952.44;;;11.11;83.16
45763;BME280;37512;52.408;13.356;2024-03-22T10:16:34;100952.63;;;11.02;84.91
45763;BME280;37512;52.408;13.356;2024-03-22T10:20:35;100949.63;;;11.28;82.18
45763;BME280;37512;52.408;13.356;2024-03-22T10:24:36;100949.47;;;11.29;81.60
45763;BME280;37512;52.408;13.356;2024-03-22T10:28:44;100941.03;;;11.63;80.52
45763;BME280;37512;52.408;13.356;2024-03-22T10:32:45;100941.44;;;11.75;79.18
45763;BME280;37512;52.408;13.356;2024-03-22T10:36:46;100925.91;;;11.62;80.65
45763;BME280;37512;52.408;13.356;2024-03-22T10:40:49;100926.59;;;11.64;79.31
45763;BME280;37512;52.408;13.356;2024-03-22T10:44:50;100919.63;;;11.32;81.16
45763;BME280;37512;52.408;13.356;2024-03-22T10:48:51;100934.66;;;11.64;80.79
45763;BME280;37512;52.408;13.356;2024-03-22T10:53:01;100912.84;;;12.05;78.71
45763;BME280;37512;52.408;13.356;2024-03-22T10:57:03;100912.81;;;12.43;76.47
45763;BME280;37512;52.408;13.356;2024-03-22T11:01:05;100897.63;;;12.35;78.73
45763;BME280;37512;52.408;13.356;2024-03-22T11:05:06;100907.31;;;12.21;76.29
45763;BME280;37512;52.408;13.356;2024-03-22T11:09:08;100896.13;;;12.18;77.67
45763;BME280;37512;52.408;13.356;2024-03-22T11:13:09;100893.03;;;12.06;77.88
45763;BME280;37512;52.408;13.356;2024-03-22T11:17:09;100888.41;;;12.00;79.94
45763;BME280;37512;52.408;13.356;2024-03-22T11:21:11;100874.81;;;11.78;81.64
45763;BME280;37512;52.408;13.356;2024-03-22T11:25:13;100877.97;;;12.20;81.92
45763;BME280;37512;52.408;13.356;2024-03-22T11:29:14;100862.41;;;12.15;81.48
45763;BME280;37512;52.408;13.356;2024-03-22T11:33:15;100869.94;;;11.97;81.39
45763;BME280;37512;52.408;13.356;2024-03-22T11:37:15;100864.06;;;12.16;81.08
45763;BME280;37512;52.408;13.356;2024-03-22T11:41:18;100861.09;;;12.11;81.77
45763;BME280;37512;52.408;13.356;2024-03-22T11:45:21;100860.56;;;12.16;81.84
45763;BME280;37512;52.408;13.356;2024-03-22T11:49:22;100853.16;;;12.18;81.87
45763;BME280;37512;52.408;13.356;2024-03-22T11:53:23;100841.44;;;12.11;82.06
45763;BME280;37512;52.408;13.356;2024-03-22T11:57:24;100836.63;;;11.91;83.42
45763;BME280;37512;52.408;13.356;2024-03-22T12:01:24;100839.78;;;12.10;83.30
45763;BME280;37512;52.408;13.356;2024-03-22T12:05:25;100838.13;;;12.23;82.39
45763;BME280;37512;52.408;13.356;2024-03-22T12:09:26;100833.97;;;12.06;85.50
45763;BME280;37512;52.408;13.356;2024-03-22T12:13:27;100829.44;;;11.69;95.81
45763;BME280;37512;52.408;13.356;2024-03-22T12:17:28;100829.06;;;11.34;100.00
45763;BME280;37512;52.408;13.356;2024-03-22T12:21:28;100815.56;;;11.42;100.00
45763;BME280;37512;52.408;13.356;2024-03-22T12:25:29;100809.47;;;11.34;100.00
45763;BME280;37512;52.408;13.356;2024-03-22T12:29:33;100810.13;;;11.13;100.00
45763;BME280;37512;52.408;13.356;2024-03-22T12:33:34;100799.06;;;11.08;100.00
45763;BME280;37512;52.408;13.356;2024-03-22T12:37:35;100793.59;;;11.24;100.00
45763;BME280;37512;52.408;13.356;2024-03-22T12:41:36;100791.94;;;11.23;100.00
45763;BME280;37512;52.408;13.356;2024-03-22T12:45:37;100793.53;;;11.09;100.00
45763;BME280;37512;52.408;13.356;2024-03-22T12:49:38;100792.72;;;10.86;100.00
45763;BME280;37512;52.408;13.356;2024-03-22T12:53:38;100794.63;;;10.77;100.00
45763;BME280;37512;52.408;13.356;2024-03-22T12:57:39;100792.03;;;10.61;100.00
45763;BME280;37512;52.408;13.356;2024-03-22T13:01:39;100784.41;;;10.73;100.00
45763;BME280;37512;52.408;13.356;2024-03-22T13:05:40;100793.44;;;10.80;100.00
45763;BME280;37512;52.408;13.356;2024-03-22T13:09:40;100769.53;;;10.70;100.00
45763;BME280;37512;52.408;13.356;2024-03-22T13:13:42;100754.44;;;10.69;100.00
45763;BME280;37512;52.408;13.356;2024-03-22T13:17:42;100764.16;;;10.70;100.00
45763;BME280;37512;52.408;13.356;2024-03-22T13:21:43;100751.06;;;10.75;100.00
45763;BME280;37512;52.408;13.356;2024-03-22T13:25:48;100722.47;;;10.68;100.00
45763;BME280;37512;52.408;13.356;2024-03-22T13:29:48;100720.09;;;10.73;100.00
45763;BME280;37512;52.408;13.356;2024-03-22T13:33:49;100725.78;;;10.78;100.00
45763;BME280;37512;52.408;13.356;2024-03-22T13:37:49;100715.16;;;10.84;100.00
45763;BME280;37512;52.408;13.356;2024-03-22T13:41:50;100714.13;;;10.85;100.00
45763;BME280;37512;52.408;13.356;2024-03-22T13:45:51;100710.44;;;10.86;100.00
45763;BME280;37512;52.408;13.356;2024-03-22T13:49:55;100711.41;;;10.71;100.00
45763;BME280;37512;52.408;13.356;2024-03-22T13:53:56;100700.38;;;10.88;100.00
45763;BME280;37512;52.408;13.356;2024-03-22T13:57:56;100699.66;;;10.72;100.00
45763;BME280;37512;52.408;13.356;2024-03-22T14:01:57;100691.22;;;10.83;100.00
45763;BME280;37512;52.408;13.356;2024-03-22T14:05:58;100696.34;;;11.07;100.00
45763;BME280;37512;52.408;13.356;2024-03-22T14:09:59;100664.81;;;11.09;100.00
45763;BME280;37512;52.408;13.356;2024-03-22T14:13:59;100669.44;;;11.01;100.00
45763;BME280;37512;52.408;13.356;2024-03-22T14:18:00;100668.44;;;11.02;100.00
45763;BME280;37512;52.408;13.356;2024-03-22T14:22:01;100657.72;;;11.02;100.00
45763;BME280;37512;52.408;13.356;2024-03-22T14:26:02;100658.06;;;10.99;100.00
45763;BME280;37512;52.408;13.356;2024-03-22T14:30:04;100663.72;;;11.04;100.00
45763;BME280;37512;52.408;13.356;2024-03-22T14:34:06;100658.91;;;10.99;100.00
45763;BME280;37512;52.408;13.356;2024-03-22T14:38:07;100659.41;;;11.17;100.00
45763;BME280;37512;52.408;13.356;2024-03-22T14:42:07;100658.00;;;11.07;100.00
45763;BME280;37512;52.408;13.356;2024-03-22T14:46:08;100650.53;;;11.17;100.00
45763;BME280;37512;52.408;13.356;2024-03-22T14:50:09;100652.75;;;11.13;100.00
45763;BME280;37512;52.408;13.356;2024-03-22T14:54:09;100645.81;;;11.19;100.00
45763;BME280;37512;52.408;13.356;2024-03-22T14:58:10;100643.56;;;11.08;100.00
45763;BME280;37512;52.408;13.356;2024-03-22T15:02:11;100644.69;;;10.99;100.00
45763;BME280;37512;52.408;13.356;2024-03-22T15:06:11;100634.13;;;10.97;100.00
45763;BME280;37512;52.408;13.356;2024-03-22T15:10:12;100626.47;;;10.94;100.00
45763;BME280;37512;52.408;13.356;2024-03-22T15:14:13;100617.47;;;10.87;100.00
45763;BME280;37512;52.408;13.356;2024-03-22T15:18:13;100607.69;;;10.94;100.00
45763;BME280;37512;52.408;13.356;2024-03-22T15:22:16;100609.53;;;10.94;100.00
45763;BME280;37512;52.408;13.356;2024-03-22T15:26:18;100608.78;;;10.85;100.00
45763;BME280;37512;52.408;13.356;2024-03-22T15:30:21;100612.38;;;10.77;100.00
45763;BME280;37512;52.408;13.356;2024-03-22T15:34:22;100600.00;;;10.76;100.00
45763;BME280;37512;52.408;13.356;2024-03-22T15:38:23;100599.31;;;10.74;100.00
45763;BME280;37512;52.408;13.356;2024-03-22T15:42:23;100597.13;;;10.78;100.00
45763;BME280;37512;52.408;13.356;2024-03-22T15:46:24;100601.38;;;10.87;100.00
45763;BME280;37512;52.408;13.356;2024-03-22T15:50:25;100596.75;;;10.81;100.00
45763;BME280;37512;52.408;13.356;2024-03-22T15:54:25;100599.41;;;10.66;100.00
45763;BME280;37512;52.408;13.356;2024-03-22T15:58:26;100591.66;;;10.71;100.00
45763;BME280;37512;52.408;13.356;2024-03-22T16:02:28;100593.50;;;10.71;100.00
45763;BME280;37512;52.408;13.356;2024-03-22T16:06:28;100587.03;;;10.65;100.00
45763;BME280;37512;52.408;13.356;2024-03-22T16:10:31;100600.13;;;10.60;100.00
45763;BME280;37512;52.408;13.356;2024-03-22T16:14:31;100594.38;;;10.48;100.00
45763;BME280;37512;52.408;13.356;2024-03-22T16:18:32;100592.22;;;10.44;100.00
45763;BME280;37512;52.408;13.356;2024-03-22T16:22:34;100594.31;;;10.34;100.00
45763;BME280;37512;52.408;13.356;2024-03-22T16:26:35;100585.69;;;10.46;100.00
45763;BME280;37512;52.408;13.356;2024-03-22T16:30:36;100575.31;;;10.43;100.00
45763;BME280;37512;52.408;13.356;2024-03-22T16:34:36;100584.66;;;10.47;100.00
45763;BME280;37512;52.408;13.356;2024-03-22T16:38:37;100582.16;;;10.46;100.00
45763;BME280;37512;52.408;13.356;2024-03-22T16:42:48;100587.63;;;10.52;100.00
45763;BME280;37512;52.408;13.356;2024-03-22T16:46:49;100592.44;;;10.57;100.00
45763;BME280;37512;52.408;13.356;2024-03-22T16:50:50;100592.75;;;10.39;100.00
45763;BME280;37512;52.408;13.356;2024-03-22T16:54:50;100581.97;;;10.47;100.00
45763;BME280;37512;52.408;13.356;2024-03-22T16:58:51;100580.31;;;10.46;100.00
45763;BME280;37512;52.408;13.356;2024-03-22T17:02:52;100579.44;;;10.31;100.00
45763;BME280;37512;52.408;13.356;2024-03-22T17:06:53;100577.94;;;10.29;100.00
45763;BME280;37512;52.408;13.356;2024-03-22T17:10:53;100578.59;;;10.31;100.00
45763;BME280;37512;52.408;13.356;2024-03-22T17:14:56;100574.13;;;10.23;100.00
45763;BME280;37512;52.408;13.356;2024-03-22T17:18:57;100573.63;;;10.19;100.00
45763;BME280;37512;52.408;13.356;2024-03-22T17:22:58;100572.50;;;10.14;100.00
45763;BME280;37512;52.408;13.356;2024-03-22T17:26:58;100573.22;;;10.08;100.00
45763;BME280;37512;52.408;13.356;2024-03-22T17:31:00;100567.69;;;10.09;100.00
45763;BME280;37512;52.408;13.356;2024-03-22T17:35:00;100575.41;;;10.04;100.00
45763;BME280;37512;52.408;13.356;2024-03-22T17:39:01;100573.72;;;10.03;100.00
45763;BME280;37512;52.408;13.356;2024-03-22T17:43:01;100565.19;;;10.08;100.00
45763;BME280;37512;52.408;13.356;2024-03-22T17:47:02;100558.03;;;10.00;100.00
45763;BME280;37512;52.408;13.356;2024-03-22T17:51:03;100562.66;;;10.06;100.00
45763;BME280;37512;52.408;13.356;2024-03-22T17:55:05;100551.66;;;10.01;100.00
45763;BME280;37512;52.408;13.356;2024-03-22T17:59:05;100558.50;;;10.04;100.00
45763;BME280;37512;52.408;13.356;2024-03-22T18:03:06;100545.91;;;10.12;100.00
45763;BME280;37512;52.408;13.356;2024-03-22T18:07:07;100551.63;;;10.09;100.00
45763;BME280;37512;52.408;13.356;2024-03-22T18:11:08;100553.41;;;10.17;100.00
45763;BME280;37512;52.408;13.356;2024-03-22T18:15:11;100553.19;;;10.26;100.00
45763;BME280;37512;52.408;13.356;2024-03-22T18:19:12;100551.44;;;10.11;100.00
45763;BME280;37512;52.408;13.356;2024-03-22T18:23:14;100551.25;;;10.12;100.00
45763;BME280;37512;52.408;13.356;2024-03-22T18:27:17;100543.84;;;10.22;100.00
45763;BME280;37512;52.408;13.356;2024-03-22T18:31:17;100549.16;;;10.00;100.00
45763;BME280;37512;52.408;13.356;2024-03-22T18:35:20;100538.63;;;9.98;100.00
45763;BME280;37512;52.408;13.356;2024-03-22T18:39:21;100542.97;;;9.99;100.00
45763;BME280;37512;52.408;13.356;2024-03-22T18:43:21;100543.03;;;10.14;100.00
45763;BME280;37512;52.408;13.356;2024-03-22T18:47:22;100532.75;;;10.03;100.00
45763;BME280;37512;52.408;13.356;2024-03-22T18:51:22;100535.38;;;10.11;100.00
45763;BME280;37512;52.408;13.356;2024-03-22T18:55:23;100532.63;;;10.19;100.00
45763;BME280;37512;52.408;13.356;2024-03-22T18:59:24;100523.13;;;9.93;100.00
45763;BME280;37512;52.408;13.356;2024-03-22T19:03:25;100520.28;;;9.95;100.00
45763;BME280;37512;52.408;13.356;2024-03-22T19:07:26;100514.63;;;9.90;100.00
45763;BME280;37512;52.408;13.356;2024-03-22T19:11:26;100513.38;;;9.78;100.00
45763;BME280;37512;52.408;13.356;2024-03-22T19:15:27;100504.44;;;10.08;100.00
45763;BME280;37512;52.408;13.356;2024-03-22T19:19:28;100518.97;;;10.14;100.00
45763;BME280;37512;52.408;13.356;2024-03-22T19:23:28;100509.06;;;10.14;100.00
45763;BME280;37512;52.408;13.356;2024-03-22T19:27:29;100511.97;;;10.05;100.00
45763;BME280;37512;52.408;13.356;2024-03-22T19:31:30;100505.75;;;10.12;100.00
45763;BME280;37512;52.408;13.356;2024-03-22T19:35:32;100498.50;;;9.98;100.00
45763;BME280;37512;52.408;13.356;2024-03-22T19:39:32;100494.91;;;10.06;100.00
45763;BME280;37512;52.408;13.356;2024-03-22T19:43:33;100487.94;;;10.19;100.00
45763;BME280;37512;52.408;13.356;2024-03-22T19:47:35;100486.66;;;9.92;100.00
45763;BME280;37512;52.408;13.356;2024-03-22T19:51:35;100486.72;;;10.07;100.00
45763;BME280;37512;52.408;13.356;2024-03-22T19:55:36;100483.09;;;10.00;100.00
45763;BME280;37512;52.408;13.356;2024-03-22T19:59:36;100483.44;;;9.97;100.00
45763;BME280;37512;52.408;13.356;2024-03-22T20:03:37;100488.00;;;9.88;100.00
45763;BME280;37512;52.408;13.356;2024-03-22T20:07:37;100483.47;;;9.74;100.00
45763;BME280;37512;52.408;13.356;2024-03-22T20:11:38;100484.22;;;9.83;100.00
45763;BME280;37512;52.408;13.356;2024-03-22T20:15:39;100488.19;;;9.87;100.00
45763;BME280;37512;52.408;13.356;2024-03-22T20:19:41;100481.53;;;9.83;100.00
45763;BME280;37512;52.408;13.356;2024-03-22T20:23:42;100478.94;;;9.75;100.00
45763;BME280;37512;52.408;13.356;2024-03-22T20:27:42;100476.47;;;9.88;100.00
45763;BME280;37512;52.408;13.356;2024-03-22T20:31:43;100474.78;;;9.72;100.00
45763;BME280;37512;52.408;13.356;2024-03-22T20:35:43;100470.09;;;9.74;100.00
